AU-0053 weather

Snowy Range Airfield
Victoria, Australia

Public forecast

Using degrees Celsius for public forecast. Weather courtesy of forecast.io.

METAR (pilot weather report)

Closest report is Wangaratta Airport, 60.2 nm (111.5 km) NNW. Retrieved 2019/03/25 05:05 UTC (4 minutes ago):

YWGT 250505Z AUTO 26018G31KT 9999 // SCT040 BKN060 OVC071 19/04 Q1010

TAF (pilot weather forecast)

Closest forecast is Wangaratta Airport, 60.2 nm (111.5 km) NNW. Retrieved 2019/03/25 02:03 UTC (3 hours ago):

TAF YWGT 250023Z 2502/2514 28017G32KT CAVOK FM250700 27012KT CAVOK